sensor_id;sensor_type;location;lat;lon;timestamp;pressure;altitude;pressure_sealevel;temperature;humidity
62510;BME280;48558;48.242;11.654;2023-08-06T00:02:45;95612.09;;;15.15;100.00
62510;BME280;48558;48.242;11.654;2023-08-06T00:06:57;95610.28;;;15.23;100.00
62510;BME280;48558;48.242;11.654;2023-08-06T00:11:10;95611.81;;;15.18;100.00
62510;BME280;48558;48.242;11.654;2023-08-06T00:15:22;95618.63;;;15.23;100.00
62510;BME280;48558;48.242;11.654;2023-08-06T00:19:35;95604.47;;;15.21;100.00
62510;BME280;48558;48.242;11.654;2023-08-06T00:23:47;95596.16;;;15.09;100.00
62510;BME280;48558;48.242;11.654;2023-08-06T00:28:00;95602.72;;;15.12;100.00
62510;BME280;48558;48.242;11.654;2023-08-06T00:32:12;95593.91;;;15.02;100.00
62510;BME280;48558;48.242;11.654;2023-08-06T00:36:25;95586.03;;;15.06;100.00
62510;BME280;48558;48.242;11.654;2023-08-06T00:40:37;95585.06;;;14.82;100.00
62510;BME280;48558;48.242;11.654;2023-08-06T00:44:50;95592.41;;;14.85;100.00
62510;BME280;48558;48.242;11.654;2023-08-06T00:49:03;95584.34;;;14.76;100.00
62510;BME280;48558;48.242;11.654;2023-08-06T00:53:16;95579.03;;;14.61;100.00
62510;BME280;48558;48.242;11.654;2023-08-06T00:57:29;95566.66;;;14.57;100.00
62510;BME280;48558;48.242;11.654;2023-08-06T01:01:42;95572.47;;;14.48;100.00
62510;BME280;48558;48.242;11.654;2023-08-06T01:05:55;95563.09;;;14.23;100.00
62510;BME280;48558;48.242;11.654;2023-08-06T01:15:05;95562.88;;;14.32;100.00
62510;BME280;48558;48.242;11.654;2023-08-06T01:19:21;95562.59;;;14.24;100.00
62510;BME280;48558;48.242;11.654;2023-08-06T01:23:33;95564.34;;;14.05;100.00
62510;BME280;48558;48.242;11.654;2023-08-06T01:27:49;95569.13;;;13.94;100.00
62510;BME280;48558;48.242;11.654;2023-08-06T01:32:03;95565.84;;;13.95;100.00
62510;BME280;48558;48.242;11.654;2023-08-06T01:36:17;95562.31;;;14.00;100.00
62510;BME280;48558;48.242;11.654;2023-08-06T01:40:31;95570.66;;;13.95;100.00
62510;BME280;48558;48.242;11.654;2023-08-06T01:44:44;95561.81;;;14.07;100.00
62510;BME280;48558;48.242;11.654;2023-08-06T01:48:57;95561.31;;;14.03;100.00
62510;BME280;48558;48.242;11.654;2023-08-06T01:53:10;95559.53;;;14.00;100.00
62510;BME280;48558;48.242;11.654;2023-08-06T01:57:23;95558.00;;;13.88;100.00
62510;BME280;48558;48.242;11.654;2023-08-06T02:01:36;95551.47;;;14.08;100.00
62510;BME280;48558;48.242;11.654;2023-08-06T02:05:49;95551.19;;;14.11;100.00
62510;BME280;48558;48.242;11.654;2023-08-06T02:10:06;95541.59;;;14.07;100.00
62510;BME280;48558;48.242;11.654;2023-08-06T02:14:18;95543.41;;;14.04;100.00
62510;BME280;48558;48.242;11.654;2023-08-06T02:18:31;95533.25;;;13.85;100.00
62510;BME280;48558;48.242;11.654;2023-08-06T02:22:44;95535.03;;;13.99;100.00
62510;BME280;48558;48.242;11.654;2023-08-06T02:26:56;95530.25;;;14.10;100.00
62510;BME280;48558;48.242;11.654;2023-08-06T02:31:09;95530.25;;;14.10;100.00
62510;BME280;48558;48.242;11.654;2023-08-06T02:35:22;95516.88;;;14.03;100.00
62510;BME280;48558;48.242;11.654;2023-08-06T02:39:34;95513.84;;;14.01;100.00
62510;BME280;48558;48.242;11.654;2023-08-06T02:43:47;95501.72;;;14.04;100.00
62510;BME280;48558;48.242;11.654;2023-08-06T02:48:01;95515.84;;;14.12;100.00
62510;BME280;48558;48.242;11.654;2023-08-06T02:52:15;95512.56;;;13.97;100.00
62510;BME280;48558;48.242;11.654;2023-08-06T02:56:27;95496.41;;;13.79;100.00
62510;BME280;48558;48.242;11.654;2023-08-06T03:00:40;95485.28;;;13.73;100.00
62510;BME280;48558;48.242;11.654;2023-08-06T03:04:52;95486.78;;;13.63;100.00
62510;BME280;48558;48.242;11.654;2023-08-06T03:09:05;95500.91;;;13.54;100.00
62510;BME280;48558;48.242;11.654;2023-08-06T03:13:18;95496.66;;;13.81;100.00
62510;BME280;48558;48.242;11.654;2023-08-06T03:17:30;95494.59;;;13.64;100.00
62510;BME280;48558;48.242;11.654;2023-08-06T03:21:43;95502.69;;;13.68;100.00
62510;BME280;48558;48.242;11.654;2023-08-06T03:26:04;95496.34;;;13.45;100.00
62510;BME280;48558;48.242;11.654;2023-08-06T03:30:16;95488.97;;;13.37;100.00
62510;BME280;48558;48.242;11.654;2023-08-06T03:34:29;95494.78;;;13.39;100.00
62510;BME280;48558;48.242;11.654;2023-08-06T03:38:41;95486.72;;;13.35;100.00
62510;BME280;48558;48.242;11.654;2023-08-06T03:42:54;95486.22;;;13.37;100.00
62510;BME280;48558;48.242;11.654;2023-08-06T03:47:07;95486.75;;;13.41;100.00
62510;BME280;48558;48.242;11.654;2023-08-06T03:51:19;95472.31;;;13.20;100.00
62510;BME280;48558;48.242;11.654;2023-08-06T03:55:32;95483.38;;;13.15;100.00
62510;BME280;48558;48.242;11.654;2023-08-06T03:59:44;95476.22;;;13.03;100.00
62510;BME280;48558;48.242;11.654;2023-08-06T04:04:06;95471.28;;;13.18;100.00
62510;BME280;48558;48.242;11.654;2023-08-06T04:08:18;95474.78;;;13.13;100.00
62510;BME280;48558;48.242;11.654;2023-08-06T04:12:31;95467.78;;;13.23;100.00
62510;BME280;48558;48.242;11.654;2023-08-06T04:16:44;95475.38;;;13.33;100.00
62510;BME280;48558;48.242;11.654;2023-08-06T04:20:57;95473.38;;;13.50;100.00
62510;BME280;48558;48.242;11.654;2023-08-06T04:25:10;95473.59;;;13.41;100.00
62510;BME280;48558;48.242;11.654;2023-08-06T04:29:22;95475.44;;;13.61;100.00
62510;BME280;48558;48.242;11.654;2023-08-06T04:33:35;95466.88;;;13.81;100.00
62510;BME280;48558;48.242;11.654;2023-08-06T04:37:47;95467.34;;;13.80;100.00
62510;BME280;48558;48.242;11.654;2023-08-06T04:42:00;95461.56;;;13.94;100.00
62510;BME280;48558;48.242;11.654;2023-08-06T04:46:13;95461.31;;;14.20;100.00
62510;BME280;48558;48.242;11.654;2023-08-06T04:50:25;95449.16;;;14.51;100.00
62510;BME280;48558;48.242;11.654;2023-08-06T04:54:38;95448.56;;;14.80;100.00
62510;BME280;48558;48.242;11.654;2023-08-06T04:58:50;95459.19;;;14.76;100.00
62510;BME280;48558;48.242;11.654;2023-08-06T05:03:03;95445.28;;;14.76;100.00
62510;BME280;48558;48.242;11.654;2023-08-06T05:07:15;95445.03;;;14.74;100.00
62510;BME280;48558;48.242;11.654;2023-08-06T05:11:28;95453.94;;;14.56;100.00
62510;BME280;48558;48.242;11.654;2023-08-06T05:15:41;95449.38;;;14.58;100.00
62510;BME280;48558;48.242;11.654;2023-08-06T05:19:54;95451.41;;;14.58;100.00
62510;BME280;48558;48.242;11.654;2023-08-06T05:24:07;95449.88;;;14.57;100.00
62510;BME280;48558;48.242;11.654;2023-08-06T05:28:20;95467.63;;;14.43;100.00
62510;BME280;48558;48.242;11.654;2023-08-06T05:32:32;95469.41;;;14.40;100.00
62510;BME280;48558;48.242;11.654;2023-08-06T05:36:45;95453.44;;;14.46;100.00
62510;BME280;48558;48.242;11.654;2023-08-06T05:40:57;95464.50;;;14.74;100.00
62510;BME280;48558;48.242;11.654;2023-08-06T05:45:10;95468.78;;;14.80;100.00
62510;BME280;48558;48.242;11.654;2023-08-06T05:49:23;95457.25;;;15.17;100.00
62510;BME280;48558;48.242;11.654;2023-08-06T05:53:35;95455.97;;;15.18;100.00
62510;BME280;48558;48.242;11.654;2023-08-06T05:57:48;95447.97;;;14.98;100.00
62510;BME280;48558;48.242;11.654;2023-08-06T06:02:01;95444.50;;;14.81;100.00
62510;BME280;48558;48.242;11.654;2023-08-06T06:06:13;95458.66;;;14.83;100.00
62510;BME280;48558;48.242;11.654;2023-08-06T06:10:27;95456.09;;;14.90;100.00
62510;BME280;48558;48.242;11.654;2023-08-06T06:14:40;95453.28;;;15.01;100.00
62510;BME280;48558;48.242;11.654;2023-08-06T06:18:52;95444.66;;;15.11;100.00
62510;BME280;48558;48.242;11.654;2023-08-06T06:23:06;95464.09;;;15.16;100.00
62510;BME280;48558;48.242;11.654;2023-08-06T06:27:19;95463.91;;;15.55;100.00
62510;BME280;48558;48.242;11.654;2023-08-06T06:31:32;95450.28;;;15.87;100.00
62510;BME280;48558;48.242;11.654;2023-08-06T06:35:44;95456.47;;;15.68;100.00
62510;BME280;48558;48.242;11.654;2023-08-06T06:39:57;95455.06;;;15.92;100.00
62510;BME280;48558;48.242;11.654;2023-08-06T06:44:10;95452.50;;;15.94;100.00
62510;BME280;48558;48.242;11.654;2023-08-06T06:48:23;95452.50;;;16.23;100.00
62510;BME280;48558;48.242;11.654;2023-08-06T06:52:35;95448.97;;;16.47;100.00
62510;BME280;48558;48.242;11.654;2023-08-06T06:56:48;95446.84;;;16.05;100.00
62510;BME280;48558;48.242;11.654;2023-08-06T07:01:01;95450.22;;;16.22;100.00
62510;BME280;48558;48.242;11.654;2023-08-06T07:05:14;95447.31;;;17.05;100.00
62510;BME280;48558;48.242;11.654;2023-08-06T07:09:27;95437.13;;;17.32;95.58
62510;BME280;48558;48.242;11.654;2023-08-06T07:13:39;95436.06;;;17.54;91.37
62510;BME280;48558;48.242;11.654;2023-08-06T07:17:52;95438.69;;;17.28;88.66
62510;BME280;48558;48.242;11.654;2023-08-06T07:22:04;95438.53;;;17.57;86.82
62510;BME280;48558;48.242;11.654;2023-08-06T07:26:17;95436.81;;;17.54;85.09
62510;BME280;48558;48.242;11.654;2023-08-06T07:30:30;95431.28;;;17.11;82.29
62510;BME280;48558;48.242;11.654;2023-08-06T07:34:43;95445.75;;;16.67;88.68
62510;BME280;48558;48.242;11.654;2023-08-06T07:38:55;95435.81;;;16.18;91.41
62510;BME280;48558;48.242;11.654;2023-08-06T07:43:09;95427.41;;;16.53;93.54
62510;BME280;48558;48.242;11.654;2023-08-06T07:47:22;95435.47;;;16.57;87.52
62510;BME280;48558;48.242;11.654;2023-08-06T07:51:34;95422.75;;;17.04;88.56
62510;BME280;48558;48.242;11.654;2023-08-06T07:55:52;95419.53;;;17.18;89.69
62510;BME280;48558;48.242;11.654;2023-08-06T08:00:06;95408.94;;;17.30;89.61
62510;BME280;48558;48.242;11.654;2023-08-06T08:04:19;95415.22;;;17.17;88.68
62510;BME280;48558;48.242;11.654;2023-08-06T08:08:34;95413.84;;;16.87;89.97
62510;BME280;48558;48.242;11.654;2023-08-06T08:12:50;95402.00;;;17.18;91.41
62510;BME280;48558;48.242;11.654;2023-08-06T08:17:03;95403.13;;;17.65;82.69
62510;BME280;48558;48.242;11.654;2023-08-06T08:21:17;95397.91;;;18.07;83.06
62510;BME280;48558;48.242;11.654;2023-08-06T08:25:30;95396.00;;;17.83;80.09
62510;BME280;48558;48.242;11.654;2023-08-06T08:29:43;95396.66;;;17.39;82.77
62510;BME280;48558;48.242;11.654;2023-08-06T08:33:56;95395.91;;;17.19;81.57
62510;BME280;48558;48.242;11.654;2023-08-06T08:38:10;95408.88;;;17.36;80.66
62510;BME280;48558;48.242;11.654;2023-08-06T08:42:24;95401.59;;;18.41;77.92
62510;BME280;48558;48.242;11.654;2023-08-06T08:46:38;95400.41;;;18.36;72.18
62510;BME280;48558;48.242;11.654;2023-08-06T08:50:53;95393.94;;;18.15;77.93
62510;BME280;48558;48.242;11.654;2023-08-06T08:55:07;95412.00;;;17.82;76.42
62510;BME280;48558;48.242;11.654;2023-08-06T08:59:22;95409.66;;;17.55;74.93
62510;BME280;48558;48.242;11.654;2023-08-06T09:03:36;95405.72;;;17.95;72.77
62510;BME280;48558;48.242;11.654;2023-08-06T09:07:49;95404.53;;;17.90;73.84
62510;BME280;48558;48.242;11.654;2023-08-06T09:12:02;95423.44;;;17.47;73.94
62510;BME280;48558;48.242;11.654;2023-08-06T09:16:18;95414.78;;;18.14;73.38
62510;BME280;48558;48.242;11.654;2023-08-06T09:20:33;95436.34;;;17.13;77.13
62510;BME280;48558;48.242;11.654;2023-08-06T09:24:46;95435.22;;;16.01;89.30
62510;BME280;48558;48.242;11.654;2023-08-06T09:28:59;95447.19;;;15.55;99.21
62510;BME280;48558;48.242;11.654;2023-08-06T09:33:18;95450.75;;;15.03;100.00
62510;BME280;48558;48.242;11.654;2023-08-06T09:37:35;95461.25;;;14.70;100.00
62510;BME280;48558;48.242;11.654;2023-08-06T09:41:48;95446.06;;;15.28;100.00
62510;BME280;48558;48.242;11.654;2023-08-06T09:46:00;95445.06;;;16.31;100.00
62510;BME280;48558;48.242;11.654;2023-08-06T09:50:17;95424.16;;;16.92;92.30
62510;BME280;48558;48.242;11.654;2023-08-06T09:54:32;95427.13;;;16.99;85.32
62510;BME280;48558;48.242;11.654;2023-08-06T09:58:46;95425.53;;;16.61;85.16
62510;BME280;48558;48.242;11.654;2023-08-06T10:03:00;95424.63;;;16.23;88.34
62510;BME280;48558;48.242;11.654;2023-08-06T10:07:13;95434.22;;;16.28;89.32
62510;BME280;48558;48.242;11.654;2023-08-06T10:11:27;95435.34;;;16.68;81.85
62510;BME280;48558;48.242;11.654;2023-08-06T10:15:41;95434.53;;;17.71;78.77
62510;BME280;48558;48.242;11.654;2023-08-06T10:19:54;95423.53;;;17.23;74.87
62510;BME280;48558;48.242;11.654;2023-08-06T10:24:08;95427.44;;;17.33;74.44
62510;BME280;48558;48.242;11.654;2023-08-06T10:28:33;95426.75;;;18.86;68.52
62510;BME280;48558;48.242;11.654;2023-08-06T10:32:51;95431.88;;;18.11;71.05
62510;BME280;48558;48.242;11.654;2023-08-06T10:37:09;95413.84;;;17.24;73.36
62510;BME280;48558;48.242;11.654;2023-08-06T10:45:49;95440.50;;;17.81;69.78
62510;BME280;48558;48.242;11.654;2023-08-06T10:50:02;95433.94;;;17.23;71.04
62510;BME280;48558;48.242;11.654;2023-08-06T10:54:15;95437.97;;;17.03;73.19
62510;BME280;48558;48.242;11.654;2023-08-06T10:58:32;95442.44;;;17.11;73.05
62510;BME280;48558;48.242;11.654;2023-08-06T11:02:47;95434.38;;;17.45;70.78
62510;BME280;48558;48.242;11.654;2023-08-06T11:07:00;95450.47;;;17.58;69.07
62510;BME280;48558;48.242;11.654;2023-08-06T11:11:14;95423.81;;;17.19;70.08
62510;BME280;48558;48.242;11.654;2023-08-06T11:15:27;95458.00;;;16.83;73.84
62510;BME280;48558;48.242;11.654;2023-08-06T11:19:41;95445.03;;;16.85;74.43
62510;BME280;48558;48.242;11.654;2023-08-06T11:23:54;95446.81;;;17.07;71.50
62510;BME280;48558;48.242;11.654;2023-08-06T11:28:06;95471.09;;;17.12;72.01
62510;BME280;48558;48.242;11.654;2023-08-06T11:32:19;95455.25;;;17.01;71.80
62510;BME280;48558;48.242;11.654;2023-08-06T11:36:33;95459.19;;;16.69;72.39
62510;BME280;48558;48.242;11.654;2023-08-06T11:40:50;95481.38;;;16.80;73.83
62510;BME280;48558;48.242;11.654;2023-08-06T11:45:04;95478.78;;;17.06;72.49
62510;BME280;48558;48.242;11.654;2023-08-06T11:49:16;95476.22;;;17.32;70.21
62510;BME280;48558;48.242;11.654;2023-08-06T11:53:31;95473.38;;;16.71;73.85
62510;BME280;48558;48.242;11.654;2023-08-06T11:57:44;95471.78;;;16.75;72.91
62510;BME280;48558;48.242;11.654;2023-08-06T12:01:57;95473.03;;;17.23;74.28
62510;BME280;48558;48.242;11.654;2023-08-06T12:06:09;95474.50;;;17.23;74.41
62510;BME280;48558;48.242;11.654;2023-08-06T12:10:24;95476.44;;;17.34;72.80
62510;BME280;48558;48.242;11.654;2023-08-06T12:14:37;95487.34;;;17.13;71.98
62510;BME280;48558;48.242;11.654;2023-08-06T12:18:50;95471.53;;;17.40;71.64
62510;BME280;48558;48.242;11.654;2023-08-06T12:23:03;95486.56;;;17.93;70.67
62510;BME280;48558;48.242;11.654;2023-08-06T12:27:15;95486.69;;;17.45;69.58
62510;BME280;48558;48.242;11.654;2023-08-06T12:31:28;95493.56;;;17.01;72.50
62510;BME280;48558;48.242;11.654;2023-08-06T12:35:41;95479.84;;;17.64;71.68
62510;BME280;48558;48.242;11.654;2023-08-06T12:39:53;95478.72;;;17.73;69.67
62510;BME280;48558;48.242;11.654;2023-08-06T12:44:06;95470.34;;;17.54;72.40
62510;BME280;48558;48.242;11.654;2023-08-06T12:48:18;95484.88;;;16.86;77.28
62510;BME280;48558;48.242;11.654;2023-08-06T12:52:31;95508.91;;;16.05;89.09
62510;BME280;48558;48.242;11.654;2023-08-06T12:56:45;95497.56;;;15.98;92.84
62510;BME280;48558;48.242;11.654;2023-08-06T13:00:58;95502.44;;;16.21;90.39
62510;BME280;48558;48.242;11.654;2023-08-06T13:05:10;95488.75;;;17.63;86.75
62510;BME280;48558;48.242;11.654;2023-08-06T13:09:23;95499.50;;;17.77;80.77
62510;BME280;48558;48.242;11.654;2023-08-06T13:13:36;95499.81;;;18.69;75.70
62510;BME280;48558;48.242;11.654;2023-08-06T13:17:49;95491.75;;;18.34;71.47
62510;BME280;48558;48.242;11.654;2023-08-06T13:22:03;95531.81;;;17.73;77.18
62510;BME280;48558;48.242;11.654;2023-08-06T13:26:17;95510.97;;;16.88;80.83
62510;BME280;48558;48.242;11.654;2023-08-06T13:30:29;95516.00;;;16.36;81.66
62510;BME280;48558;48.242;11.654;2023-08-06T13:34:43;95517.53;;;16.67;86.74
62510;BME280;48558;48.242;11.654;2023-08-06T13:38:56;95514.56;;;16.83;86.90
62510;BME280;48558;48.242;11.654;2023-08-06T13:43:09;95532.56;;;17.31;83.05
62510;BME280;48558;48.242;11.654;2023-08-06T13:47:21;95515.66;;;17.66;81.22
62510;BME280;48558;48.242;11.654;2023-08-06T13:51:34;95518.66;;;17.68;79.06
62510;BME280;48558;48.242;11.654;2023-08-06T13:55:48;95538.88;;;16.88;81.82
62510;BME280;48558;48.242;11.654;2023-08-06T14:00:01;95540.41;;;16.24;86.78
62510;BME280;48558;48.242;11.654;2023-08-06T14:04:14;95546.06;;;16.13;89.27
62510;BME280;48558;48.242;11.654;2023-08-06T14:08:26;95546.53;;;16.23;90.05
62510;BME280;48558;48.242;11.654;2023-08-06T14:12:39;95546.81;;;16.49;88.51
62510;BME280;48558;48.242;11.654;2023-08-06T14:16:52;95552.03;;;16.64;85.09
62510;BME280;48558;48.242;11.654;2023-08-06T14:21:07;95550.09;;;16.18;88.08
62510;BME280;48558;48.242;11.654;2023-08-06T14:25:20;95561.31;;;16.12;96.61
62510;BME280;48558;48.242;11.654;2023-08-06T14:29:33;95567.22;;;15.98;99.70
62510;BME280;48558;48.242;11.654;2023-08-06T14:33:46;95568.13;;;15.70;99.23
62510;BME280;48558;48.242;11.654;2023-08-06T14:37:58;95577.22;;;16.17;96.40
62510;BME280;48558;48.242;11.654;2023-08-06T14:42:14;95594.19;;;15.73;100.00
62510;BME280;48558;48.242;11.654;2023-08-06T14:46:27;95608.75;;;15.27;100.00
62510;BME280;48558;48.242;11.654;2023-08-06T14:50:39;95606.84;;;14.78;100.00
62510;BME280;48558;48.242;11.654;2023-08-06T14:54:53;95618.72;;;14.51;100.00
62510;BME280;48558;48.242;11.654;2023-08-06T14:59:07;95653.28;;;14.27;100.00
62510;BME280;48558;48.242;11.654;2023-08-06T15:03:20;95648.75;;;14.24;100.00
62510;BME280;48558;48.242;11.654;2023-08-06T15:07:32;95657.97;;;13.83;100.00
62510;BME280;48558;48.242;11.654;2023-08-06T15:11:48;95668.28;;;13.77;100.00
62510;BME280;48558;48.242;11.654;2023-08-06T15:16:01;95663.97;;;13.70;100.00
62510;BME280;48558;48.242;11.654;2023-08-06T15:20:14;95669.97;;;13.57;100.00
62510;BME280;48558;48.242;11.654;2023-08-06T15:24:26;95681.16;;;13.74;100.00
62510;BME280;48558;48.242;11.654;2023-08-06T15:28:39;95684.41;;;13.67;100.00
62510;BME280;48558;48.242;11.654;2023-08-06T15:32:51;95686.56;;;14.05;100.00
62510;BME280;48558;48.242;11.654;2023-08-06T15:37:04;95675.25;;;14.20;100.00
62510;BME280;48558;48.242;11.654;2023-08-06T15:41:17;95678.63;;;14.52;100.00
62510;BME280;48558;48.242;11.654;2023-08-06T15:45:29;95690.25;;;14.56;100.00
62510;BME280;48558;48.242;11.654;2023-08-06T15:49:42;95705.41;;;14.38;100.00
62510;BME280;48558;48.242;11.654;2023-08-06T15:53:55;95698.22;;;14.15;100.00
62510;BME280;48558;48.242;11.654;2023-08-06T15:58:07;95716.78;;;13.87;100.00
62510;BME280;48558;48.242;11.654;2023-08-06T16:02:20;95714.31;;;13.46;100.00
62510;BME280;48558;48.242;11.654;2023-08-06T16:06:32;95721.44;;;13.16;100.00
62510;BME280;48558;48.242;11.654;2023-08-06T16:10:45;95721.22;;;13.20;100.00
62510;BME280;48558;48.242;11.654;2023-08-06T16:14:58;95718.66;;;13.53;100.00
62510;BME280;48558;48.242;11.654;2023-08-06T16:19:10;95733.34;;;13.64;100.00
62510;BME280;48558;48.242;11.654;2023-08-06T16:23:23;95741.47;;;13.68;100.00
62510;BME280;48558;48.242;11.654;2023-08-06T16:27:35;95737.72;;;13.77;100.00
62510;BME280;48558;48.242;11.654;2023-08-06T16:31:48;95739.56;;;13.96;100.00
62510;BME280;48558;48.242;11.654;2023-08-06T16:36:01;95733.03;;;13.99;100.00
62510;BME280;48558;48.242;11.654;2023-08-06T16:40:13;95744.88;;;13.94;100.00
62510;BME280;48558;48.242;11.654;2023-08-06T16:44:29;95748.56;;;13.75;100.00
62510;BME280;48558;48.242;11.654;2023-08-06T16:48:43;95741.38;;;13.57;100.00
62510;BME280;48558;48.242;11.654;2023-08-06T16:52:56;95740.13;;;13.58;100.00
62510;BME280;48558;48.242;11.654;2023-08-06T16:57:09;95751.88;;;13.42;100.00
62510;BME280;48558;48.242;11.654;2023-08-06T17:01:22;95753.41;;;13.43;100.00
62510;BME280;48558;48.242;11.654;2023-08-06T17:05:34;95759.19;;;13.39;100.00
62510;BME280;48558;48.242;11.654;2023-08-06T17:09:47;95750.44;;;13.52;100.00
62510;BME280;48558;48.242;11.654;2023-08-06T17:14:00;95739.94;;;13.67;100.00
62510;BME280;48558;48.242;11.654;2023-08-06T17:18:13;95744.81;;;13.41;100.00
62510;BME280;48558;48.242;11.654;2023-08-06T17:22:29;95772.03;;;13.37;100.00
62510;BME280;48558;48.242;11.654;2023-08-06T17:26:41;95786.84;;;13.28;100.00
62510;BME280;48558;48.242;11.654;2023-08-06T17:30:55;95826.94;;;13.02;100.00
62510;BME280;48558;48.242;11.654;2023-08-06T17:35:08;95814.38;;;12.55;100.00
62510;BME280;48558;48.242;11.654;2023-08-06T17:39:21;95824.00;;;12.19;100.00
62510;BME280;48558;48.242;11.654;2023-08-06T17:43:33;95809.88;;;12.37;100.00
62510;BME280;48558;48.242;11.654;2023-08-06T17:47:46;95801.28;;;12.81;100.00
62510;BME280;48558;48.242;11.654;2023-08-06T17:51:59;95801.44;;;12.98;100.00
62510;BME280;48558;48.242;11.654;2023-08-06T17:56:12;95797.22;;;13.02;100.00
62510;BME280;48558;48.242;11.654;2023-08-06T18:00:25;95804.75;;;13.02;100.00
62510;BME280;48558;48.242;11.654;2023-08-06T18:04:38;95815.78;;;12.96;100.00
62510;BME280;48558;48.242;11.654;2023-08-06T18:08:51;95815.47;;;12.88;100.00
62510;BME280;48558;48.242;11.654;2023-08-06T18:13:03;95824.88;;;12.96;100.00
62510;BME280;48558;48.242;11.654;2023-08-06T18:17:16;95817.72;;;12.84;100.00
62510;BME280;48558;48.242;11.654;2023-08-06T18:21:28;95819.38;;;12.76;100.00
62510;BME280;48558;48.242;11.654;2023-08-06T18:25:42;95823.84;;;12.68;100.00
62510;BME280;48558;48.242;11.654;2023-08-06T18:29:54;95804.66;;;12.65;100.00
62510;BME280;48558;48.242;11.654;2023-08-06T18:34:07;95825.94;;;12.53;100.00
62510;BME280;48558;48.242;11.654;2023-08-06T18:38:19;95835.91;;;12.65;100.00
62510;BME280;48558;48.242;11.654;2023-08-06T18:42:32;95816.53;;;12.45;100.00
62510;BME280;48558;48.242;11.654;2023-08-06T18:46:45;95833.28;;;12.56;100.00
62510;BME280;48558;48.242;11.654;2023-08-06T18:50:57;95834.75;;;12.52;100.00
62510;BME280;48558;48.242;11.654;2023-08-06T18:55:10;95848.53;;;12.66;100.00
62510;BME280;48558;48.242;11.654;2023-08-06T18:59:22;95852.25;;;12.63;100.00
62510;BME280;48558;48.242;11.654;2023-08-06T19:03:35;95853.06;;;12.69;100.00
62510;BME280;48558;48.242;11.654;2023-08-06T19:07:49;95866.59;;;12.82;100.00
62510;BME280;48558;48.242;11.654;2023-08-06T19:12:02;95864.00;;;12.78;100.00
62510;BME280;48558;48.242;11.654;2023-08-06T19:16:15;95860.28;;;12.81;100.00
62510;BME280;48558;48.242;11.654;2023-08-06T19:20:28;95863.47;;;12.74;100.00
62510;BME280;48558;48.242;11.654;2023-08-06T19:24:40;95869.28;;;12.76;100.00
62510;BME280;48558;48.242;11.654;2023-08-06T19:28:54;95871.88;;;12.80;100.00
62510;BME280;48558;48.242;11.654;2023-08-06T19:33:07;95861.25;;;12.78;100.00
62510;BME280;48558;48.242;11.654;2023-08-06T19:37:30;95877.09;;;12.78;100.00
62510;BME280;48558;48.242;11.654;2023-08-06T19:41:42;95866.41;;;12.65;100.00
62510;BME280;48558;48.242;11.654;2023-08-06T19:45:55;95877.25;;;12.69;100.00
62510;BME280;48558;48.242;11.654;2023-08-06T19:50:10;95862.09;;;12.64;100.00
62510;BME280;48558;48.242;11.654;2023-08-06T19:54:23;95875.41;;;12.60;100.00
62510;BME280;48558;48.242;11.654;2023-08-06T19:58:36;95870.22;;;12.48;100.00
62510;BME280;48558;48.242;11.654;2023-08-06T20:02:48;95842.56;;;12.53;100.00
62510;BME280;48558;48.242;11.654;2023-08-06T20:07:01;95869.03;;;12.54;100.00
62510;BME280;48558;48.242;11.654;2023-08-06T20:11:14;95868.53;;;12.56;100.00
62510;BME280;48558;48.242;11.654;2023-08-06T20:15:27;95873.47;;;12.46;100.00
62510;BME280;48558;48.242;11.654;2023-08-06T20:19:40;95873.47;;;12.46;100.00
62510;BME280;48558;48.242;11.654;2023-08-06T20:23:52;95874.19;;;12.41;100.00
62510;BME280;48558;48.242;11.654;2023-08-06T20:28:05;95878.69;;;12.39;100.00
62510;BME280;48558;48.242;11.654;2023-08-06T20:32:17;95876.03;;;12.30;100.00
62510;BME280;48558;48.242;11.654;2023-08-06T20:36:30;95883.16;;;12.36;100.00
62510;BME280;48558;48.242;11.654;2023-08-06T20:40:42;95881.03;;;12.26;100.00
62510;BME280;48558;48.242;11.654;2023-08-06T20:44:55;95872.38;;;12.38;100.00
62510;BME280;48558;48.242;11.654;2023-08-06T20:49:08;95879.84;;;12.32;100.00
62510;BME280;48558;48.242;11.654;2023-08-06T20:53:20;95891.75;;;12.38;100.00
62510;BME280;48558;48.242;11.654;2023-08-06T20:57:34;95899.31;;;12.38;100.00
62510;BME280;48558;48.242;11.654;2023-08-06T21:01:46;95898.13;;;12.44;100.00
62510;BME280;48558;48.242;11.654;2023-08-06T21:06:04;95901.88;;;12.41;100.00
62510;BME280;48558;48.242;11.654;2023-08-06T21:10:17;95896.81;;;12.40;100.00
62510;BME280;48558;48.242;11.654;2023-08-06T21:14:30;95914.69;;;12.39;100.00
62510;BME280;48558;48.242;11.654;2023-08-06T21:18:42;95916.47;;;12.42;100.00
62510;BME280;48558;48.242;11.654;2023-08-06T21:22:55;95907.56;;;12.32;100.00
62510;BME280;48558;48.242;11.654;2023-08-06T21:27:08;95912.59;;;12.34;100.00
62510;BME280;48558;48.242;11.654;2023-08-06T21:31:20;95913.50;;;12.25;100.00
62510;BME280;48558;48.242;11.654;2023-08-06T21:35:33;95913.78;;;12.27;100.00
62510;BME280;48558;48.242;11.654;2023-08-06T21:39:45;95911.56;;;12.31;100.00
62510;BME280;48558;48.242;11.654;2023-08-06T21:43:58;95920.44;;;12.35;100.00
62510;BME280;48558;48.242;11.654;2023-08-06T21:48:11;95905.19;;;12.25;100.00
62510;BME280;48558;48.242;11.654;2023-08-06T21:52:23;95901.03;;;12.35;100.00
62510;BME280;48558;48.242;11.654;2023-08-06T21:56:36;95910.34;;;12.32;100.00
62510;BME280;48558;48.242;11.654;2023-08-06T22:00:52;95905.47;;;12.27;100.00